createdAt,value
2018-11-06T00:00:58.891Z,82.28
2018-11-06T00:03:48.338Z,82.42
2018-11-06T00:06:35.675Z,82.12
2018-11-06T00:09:05.256Z,82.12
2018-11-06T00:11:34.254Z,82.38
2018-11-06T00:14:07.621Z,82.12
2018-11-06T00:16:40.908Z,82.25
2018-11-06T00:19:13.548Z,81.92
2018-11-06T00:21:45.823Z,82.05
2018-11-06T00:24:18.674Z,81.95
2018-11-06T00:26:51.380Z,82.27
2018-11-06T00:29:20.442Z,82.09
2018-11-06T00:31:49.588Z,81.91
2018-11-06T00:34:18.828Z,82.11
2018-11-06T00:36:47.832Z,82.11
2018-11-06T00:39:16.875Z,82.07
2018-11-06T00:41:45.917Z,82.00
2018-11-06T00:44:14.924Z,82.33
2018-11-06T00:46:43.913Z,82.31
2018-11-06T00:49:13.053Z,82.40
2018-11-06T00:51:42.127Z,82.32
2018-11-06T00:54:11.242Z,82.15
2018-11-06T00:56:40.306Z,82.34
2018-11-06T00:59:10.167Z,82.58
2018-11-06T01:01:39.215Z,82.28
2018-11-06T01:04:10.667Z,82.13
2018-11-06T01:06:39.747Z,82.31
2018-11-06T01:09:11.767Z,82.21
2018-11-06T01:11:41.533Z,82.24
2018-11-06T01:14:10.637Z,82.21
2018-11-06T01:16:40.307Z,82.21
2018-11-06T01:19:10.118Z,82.35
2018-11-06T01:21:39.295Z,82.17
2018-11-06T01:24:08.984Z,82.03
2018-11-06T01:26:38.025Z,82.09
2018-11-06T01:29:07.748Z,81.89
2018-11-06T01:31:36.792Z,81.99
2018-11-06T01:34:06.001Z,82.06
2018-11-06T01:36:35.017Z,81.93
2018-11-06T01:39:05.038Z,81.98
2018-11-06T01:41:34.116Z,82.18
2018-11-06T01:44:03.387Z,81.70
2018-11-06T01:46:32.426Z,81.97
2018-11-06T01:49:01.520Z,81.97
2018-11-06T01:51:30.568Z,81.94
2018-11-06T01:53:59.621Z,81.80
2018-11-06T01:56:28.662Z,81.95
2018-11-06T01:58:57.716Z,81.95
2018-11-06T02:01:26.712Z,82.02
2018-11-06T02:03:55.782Z,82.00
2018-11-06T02:06:24.871Z,81.87
2018-11-06T02:08:53.936Z,82.12
2018-11-06T02:11:23.014Z,81.82
2018-11-06T02:13:52.142Z,82.08
2018-11-06T02:16:21.340Z,82.13
2018-11-06T02:18:50.351Z,82.17
2018-11-06T02:21:19.425Z,81.90
2018-11-06T02:23:48.562Z,81.78
2018-11-06T02:26:17.655Z,82.06
2018-11-06T02:28:46.688Z,82.16
2018-11-06T02:31:15.988Z,82.05
2018-11-06T02:33:45.073Z,82.03
2018-11-06T02:36:14.228Z,82.12
2018-11-06T02:38:43.341Z,82.32
2018-11-06T02:41:12.417Z,81.89
2018-11-06T02:43:41.579Z,82.30
2018-11-06T02:46:11.067Z,82.19
2018-11-06T02:48:40.184Z,82.22
2018-11-06T02:51:09.264Z,82.11
2018-11-06T02:53:38.300Z,82.07
2018-11-06T02:56:07.843Z,82.27
2018-11-06T02:58:36.883Z,82.12
2018-11-06T03:01:06.180Z,82.30
2018-11-06T03:03:40.812Z,82.17
2018-11-06T03:06:11.138Z,82.46
2018-11-06T03:08:40.534Z,82.27
2018-11-06T03:11:09.712Z,82.61
2018-11-06T03:13:38.859Z,82.30
2018-11-06T03:16:07.977Z,82.45
2018-11-06T03:18:37.018Z,82.35
2018-11-06T03:21:06.152Z,82.42
2018-11-06T03:23:35.281Z,82.51
2018-11-06T03:26:04.409Z,82.26
2018-11-06T03:28:33.457Z,82.50
2018-11-06T03:31:02.581Z,82.21
2018-11-06T03:33:31.675Z,82.26
2018-11-06T03:36:00.769Z,82.37
2018-11-06T03:38:29.897Z,82.43
2018-11-06T03:40:58.938Z,82.29
2018-11-06T03:43:27.954Z,82.29
2018-11-06T03:45:57.124Z,82.19
2018-11-06T03:48:26.161Z,82.35
2018-11-06T03:50:55.268Z,82.27
2018-11-06T03:53:24.322Z,82.47
2018-11-06T03:55:53.403Z,82.46
2018-11-06T03:58:22.462Z,82.55
2018-11-06T04:00:51.594Z,82.58
2018-11-06T04:03:20.604Z,82.54
2018-11-06T04:05:49.956Z,82.40
2018-11-06T04:08:19.000Z,82.51
2018-11-06T04:10:48.030Z,82.75
2018-11-06T04:13:17.090Z,82.52
2018-11-06T04:15:46.119Z,82.83
2018-11-06T04:18:15.197Z,82.71
2018-11-06T04:20:44.224Z,82.81
2018-11-06T04:23:13.296Z,82.84
2018-11-06T04:25:42.424Z,82.71
2018-11-06T04:28:11.488Z,82.73
2018-11-06T04:30:40.615Z,82.71
2018-11-06T04:33:09.722Z,82.88
2018-11-06T04:35:38.774Z,82.70
2018-11-06T04:38:07.838Z,82.88
2018-11-06T04:40:36.860Z,82.74
2018-11-06T04:43:06.315Z,82.53
2018-11-06T04:45:35.341Z,82.70
2018-11-06T04:48:04.361Z,82.75
2018-11-06T04:50:33.446Z,82.87
2018-11-06T04:53:03.077Z,82.88
2018-11-06T04:55:32.108Z,82.93
2018-11-06T04:58:01.148Z,82.66
2018-11-06T05:00:30.248Z,82.64
2018-11-06T05:02:59.339Z,82.65
2018-11-06T05:05:28.392Z,82.56
2018-11-06T05:07:57.426Z,82.60
2018-11-06T05:10:26.482Z,82.86
2018-11-06T05:12:55.557Z,82.60
2018-11-06T05:15:24.622Z,82.50
2018-11-06T05:17:53.663Z,82.55
2018-11-06T05:20:22.777Z,82.96
2018-11-06T05:22:51.807Z,82.82
2018-11-06T05:25:20.888Z,83.00
2018-11-06T05:27:49.892Z,82.96
2018-11-06T05:30:18.924Z,82.84
2018-11-06T05:32:48.010Z,82.94
2018-11-06T05:35:17.057Z,82.79
2018-11-06T05:37:46.955Z,82.66
2018-11-06T05:40:26.949Z,82.99
2018-11-06T05:42:56.006Z,83.01
2018-11-06T05:45:25.118Z,82.83
2018-11-06T05:47:54.133Z,82.81
2018-11-06T05:50:23.283Z,82.62
2018-11-06T05:52:52.945Z,82.87
2018-11-06T05:55:21.966Z,82.88
2018-11-06T05:57:51.012Z,82.90
2018-11-06T06:00:20.823Z,83.10
2018-11-06T06:02:49.908Z,82.89
2018-11-06T06:05:18.973Z,82.95
2018-11-06T06:07:48.034Z,82.75
2018-11-06T06:10:17.075Z,82.99
2018-11-06T06:12:46.128Z,82.70
2018-11-06T06:15:15.168Z,82.70
2018-11-06T06:17:44.216Z,82.96
2018-11-06T06:20:13.313Z,82.83
2018-11-06T06:22:42.615Z,82.91
2018-11-06T06:25:11.628Z,82.98
2018-11-06T06:27:40.728Z,82.88
2018-11-06T06:30:12.626Z,83.01
2018-11-06T06:32:41.812Z,82.99
2018-11-06T06:35:12.108Z,83.03
2018-11-06T06:37:41.427Z,82.93
2018-11-06T06:40:12.805Z,82.97
2018-11-06T06:42:42.514Z,82.92
2018-11-06T06:45:13.211Z,83.11
2018-11-06T06:47:42.333Z,82.93
2018-11-06T06:50:13.481Z,82.82
2018-11-06T06:52:42.889Z,82.97
2018-11-06T06:55:12.996Z,82.95
2018-11-06T06:57:42.849Z,83.03
2018-11-06T07:00:17.955Z,82.68
2018-11-06T07:02:47.137Z,82.85
2018-11-06T07:05:17.549Z,82.80
2018-11-06T07:07:47.402Z,82.58
2018-11-06T07:10:18.669Z,82.76
2018-11-06T07:12:48.500Z,82.61
2018-11-06T07:15:18.882Z,82.65
2018-11-06T07:17:48.997Z,82.75
2018-11-06T07:20:20.673Z,82.63
2018-11-06T07:22:49.680Z,82.48
2018-11-06T07:25:18.812Z,82.50
2018-11-06T07:27:48.588Z,82.51
2018-11-06T07:30:20.866Z,82.54
2018-11-06T07:32:50.119Z,82.46
2018-11-06T07:35:19.937Z,82.33
2018-11-06T07:37:48.950Z,82.59
2018-11-06T07:40:19.375Z,82.31
2018-11-06T07:42:48.463Z,82.37
2018-11-06T07:45:18.794Z,81.93
2018-11-06T07:47:48.004Z,82.04
2018-11-06T07:50:17.214Z,81.94
2018-11-06T07:52:46.455Z,82.07
2018-11-06T07:55:16.907Z,82.01
2018-11-06T07:57:46.020Z,81.68
2018-11-06T08:00:17.576Z,81.65
2018-11-06T08:02:47.548Z,81.47
2018-11-06T08:05:17.080Z,81.52
2018-11-06T08:07:47.013Z,81.30
2018-11-06T08:10:17.095Z,81.46
2018-11-06T08:12:48.686Z,81.21
2018-11-06T08:15:17.919Z,81.21
2018-11-06T08:17:47.164Z,81.17
2018-11-06T08:20:16.400Z,81.14
2018-11-06T08:22:45.436Z,80.96
2018-11-06T08:25:15.881Z,80.76
2018-11-06T08:27:45.449Z,81.12
2018-11-06T08:30:14.893Z,80.61
2018-11-06T08:32:45.373Z,80.67
2018-11-06T08:35:15.449Z,80.62
2018-11-06T08:37:45.022Z,80.65
2018-11-06T08:40:16.166Z,80.74
2018-11-06T08:42:45.492Z,80.54
2018-11-06T08:45:15.569Z,80.41
2018-11-06T08:47:46.188Z,80.35
2018-11-06T08:50:17.185Z,80.36
2018-11-06T08:52:46.273Z,80.28
2018-11-06T08:55:15.984Z,80.31
2018-11-06T08:57:45.592Z,79.88
2018-11-06T09:00:16.743Z,80.06
2018-11-06T09:02:47.587Z,79.81
2018-11-06T09:05:17.405Z,79.58
2018-11-06T09:07:46.544Z,79.74
2018-11-06T09:10:16.467Z,79.68
2018-11-06T09:12:45.578Z,79.78
2018-11-06T09:15:15.678Z,79.95
2018-11-06T09:17:45.732Z,79.57
2018-11-06T09:20:16.036Z,79.77
2018-11-06T09:22:45.205Z,79.61
2018-11-06T09:25:15.594Z,79.52
2018-11-06T09:27:45.107Z,79.84
2018-11-06T09:30:19.575Z,79.53
2018-11-06T09:32:48.719Z,79.72
2018-11-06T09:35:17.800Z,79.35
2018-11-06T09:37:46.921Z,79.47
2018-11-06T09:40:17.557Z,79.54
2018-11-06T09:42:46.659Z,79.32
2018-11-06T09:45:16.049Z,79.49
2018-11-06T09:47:45.226Z,79.53
2018-11-06T09:56:09.378Z,79.37
2018-11-06T09:58:39.295Z,79.44
2018-11-06T10:01:08.509Z,79.33
2018-11-06T10:03:37.755Z,79.54
2018-11-06T10:06:08.295Z,79.65
2018-11-06T10:08:37.443Z,79.73
2018-11-06T10:11:06.680Z,79.67
2018-11-06T10:13:36.639Z,79.56
2018-11-06T10:16:06.159Z,79.88
2018-11-06T10:18:35.548Z,79.83
2018-11-06T10:21:04.777Z,80.34
2018-11-06T10:23:34.007Z,79.98
2018-11-06T10:26:03.942Z,80.46
2018-11-06T10:28:33.736Z,80.12
2018-11-06T10:31:03.679Z,80.28
2018-11-06T10:33:32.994Z,80.66
2018-11-06T10:36:02.162Z,80.34
2018-11-06T10:38:31.321Z,80.33
2018-11-06T10:41:00.528Z,79.92
2018-11-06T10:43:29.591Z,80.07
2018-11-06T10:46:25.436Z,80.37
2018-11-06T10:48:54.526Z,80.28
2018-11-06T10:51:23.673Z,80.31
2018-11-06T10:53:52.723Z,79.94
2018-11-06T10:56:21.802Z,80.29
2018-11-06T10:58:51.045Z,79.82
2018-11-06T11:01:25.454Z,79.73
2018-11-06T11:03:59.660Z,79.91
2018-11-06T11:06:29.179Z,79.50
2018-11-06T11:08:58.355Z,79.24
2018-11-06T11:11:27.624Z,79.09
2018-11-06T11:14:00.125Z,79.30
2018-11-06T11:16:30.590Z,78.81
2018-11-06T11:19:00.363Z,78.92
2018-11-06T11:21:29.655Z,78.27
2018-11-06T11:23:58.880Z,78.57
2018-11-06T11:26:28.125Z,78.27
2018-11-06T11:28:57.969Z,78.22
2018-11-06T11:31:28.011Z,78.44
2018-11-06T11:33:57.196Z,78.06
2018-11-06T11:36:26.279Z,77.81
2018-11-06T11:38:55.983Z,77.22
2018-11-06T11:41:25.606Z,77.22
2018-11-06T11:44:01.696Z,76.99
2018-11-06T11:46:30.855Z,76.93
2018-11-06T11:49:00.966Z,76.89
2018-11-06T11:51:31.522Z,76.84
2018-11-06T11:54:01.693Z,76.83
2018-11-06T11:56:31.633Z,76.76
2018-11-06T11:59:00.819Z,76.27
2018-11-06T12:01:29.929Z,76.30
2018-11-06T12:04:00.096Z,76.08
2018-11-06T12:06:29.093Z,76.27
2018-11-06T12:08:58.224Z,75.86
2018-11-06T12:11:27.336Z,76.09
2018-11-06T12:13:57.648Z,75.28
2018-11-06T12:16:26.799Z,75.58
2018-11-06T12:18:56.104Z,75.23
2018-11-06T12:21:25.334Z,75.04
2018-11-06T12:23:54.553Z,74.78
2018-11-06T12:26:23.854Z,74.85
2018-11-06T12:28:54.755Z,74.80
2018-11-06T12:31:31.341Z,74.74
2018-11-06T12:34:02.551Z,74.90
2018-11-06T12:36:32.800Z,74.91
2018-11-06T12:39:03.876Z,74.72
2018-11-06T12:41:33.136Z,74.75
2018-11-06T12:44:02.438Z,74.87
2018-11-06T12:46:33.273Z,74.68
2018-11-06T12:49:02.396Z,74.60
2018-11-06T12:51:32.618Z,74.54
2018-11-06T12:54:01.825Z,74.36
2018-11-06T12:56:31.559Z,74.76
2018-11-06T12:59:04.713Z,74.37
2018-11-06T13:01:35.636Z,74.59
2018-11-06T13:04:04.866Z,74.60
2018-11-06T13:06:33.998Z,74.56
2018-11-06T13:09:03.169Z,74.21
2018-11-06T13:11:32.364Z,74.14
2018-11-06T13:14:02.444Z,74.16
2018-11-06T13:16:31.990Z,74.46
2018-11-06T13:19:06.216Z,74.10
2018-11-06T13:21:35.570Z,73.88
2018-11-06T13:24:04.872Z,73.60
2018-11-06T13:26:34.182Z,73.59
2018-11-06T13:30:18.478Z,73.75
2018-11-06T13:32:48.502Z,73.20
2018-11-06T13:35:17.670Z,72.85
2018-11-06T13:37:46.801Z,72.35
2018-11-06T13:40:17.124Z,72.20
2018-11-06T13:42:47.796Z,71.61
2018-11-06T13:45:19.207Z,71.27
2018-11-06T13:47:48.585Z,71.21
2018-11-06T13:50:18.597Z,71.03
2018-11-06T13:52:48.165Z,71.04
2018-11-06T13:55:18.385Z,70.52
2018-11-06T13:57:48.122Z,69.80
2018-11-06T14:00:19.636Z,69.54
2018-11-06T14:02:49.361Z,69.08
2018-11-06T14:05:19.200Z,68.73
2018-11-06T14:07:48.483Z,68.87
2018-11-06T14:10:17.763Z,69.05
2018-11-06T14:12:47.023Z,68.96
2018-11-06T14:15:16.426Z,68.74
2018-11-06T14:17:50.782Z,68.38
2018-11-06T14:20:20.686Z,68.72
2018-11-06T14:22:50.679Z,68.42
2018-11-06T14:25:20.130Z,68.64
2018-11-06T14:27:50.866Z,68.37
2018-11-06T14:30:20.629Z,68.41
2018-11-06T14:32:49.875Z,68.43
2018-11-06T14:35:19.797Z,68.63
2018-11-06T14:37:49.146Z,68.98
2018-11-06T14:40:22.575Z,69.07
2018-11-06T14:42:53.522Z,69.97
2018-11-06T14:45:22.637Z,70.41
2018-11-06T14:47:55.488Z,70.96
2018-11-06T14:50:24.774Z,71.60
2018-11-06T14:52:55.246Z,72.02
2018-11-06T14:55:25.012Z,72.32
2018-11-06T14:57:54.148Z,72.61
2018-11-06T15:00:23.444Z,72.76
2018-11-06T15:02:53.699Z,73.27
2018-11-06T15:05:23.792Z,73.28
2018-11-06T15:07:52.950Z,73.64
2018-11-06T15:10:22.951Z,73.39
2018-11-06T15:12:52.672Z,73.87
2018-11-06T15:15:22.583Z,73.96
2018-11-06T15:17:51.737Z,73.98
2018-11-06T15:20:22.949Z,74.01
2018-11-06T15:22:52.224Z,74.37
2018-11-06T15:25:21.480Z,74.98
2018-11-06T15:27:50.724Z,75.50
2018-11-06T15:30:20.222Z,75.80
2018-11-06T15:32:50.994Z,76.22
2018-11-06T15:35:21.372Z,76.62
2018-11-06T15:37:50.463Z,76.72
2018-11-06T15:40:20.510Z,77.09
2018-11-06T15:42:49.607Z,77.33
2018-11-06T15:45:20.614Z,77.55
2018-11-06T15:47:50.600Z,77.54
2018-11-06T15:50:21.414Z,77.78
2018-11-06T15:52:51.674Z,78.04
2018-11-06T15:55:21.875Z,78.25
2018-11-06T15:57:51.942Z,78.74
2018-11-06T16:00:22.557Z,79.09
2018-11-06T16:02:51.982Z,78.98
2018-11-06T16:05:21.240Z,78.88
2018-11-06T16:07:50.656Z,79.43
2018-11-06T16:10:21.207Z,79.64
2018-11-06T16:12:50.436Z,79.71
2018-11-06T16:15:19.626Z,79.72
2018-11-06T16:17:48.827Z,80.27
2018-11-06T16:20:20.575Z,79.85
2018-11-06T16:22:49.869Z,80.02
2018-11-06T16:25:19.685Z,79.80
2018-11-06T16:27:49.026Z,80.03
2018-11-06T16:30:20.296Z,80.44
2018-11-06T16:32:49.488Z,80.32
2018-11-06T16:35:19.993Z,80.43
2018-11-06T16:37:49.492Z,80.42
2018-11-06T16:40:19.151Z,80.47
2018-11-06T16:42:48.897Z,80.56
2018-11-06T16:45:20.348Z,80.63
2018-11-06T16:47:50.352Z,80.54
2018-11-06T16:50:19.785Z,80.73
2018-11-06T16:52:49.011Z,80.70
2018-11-06T16:55:19.285Z,80.79
2018-11-06T16:57:48.425Z,80.59
2018-11-06T17:00:19.923Z,80.81
2018-11-06T17:02:48.891Z,80.83
2018-11-06T17:05:18.004Z,80.96
2018-11-06T17:07:47.492Z,80.66
2018-11-06T17:10:17.277Z,80.77
2018-11-06T17:12:46.405Z,80.73
2018-11-06T17:15:19.525Z,80.74
2018-11-06T17:17:49.713Z,80.60
2018-11-06T17:20:20.501Z,80.49
2018-11-06T17:22:50.644Z,80.51
2018-11-06T17:25:21.020Z,80.67
2018-11-06T17:27:50.180Z,80.26
2018-11-06T17:30:21.240Z,80.13
2018-11-06T17:32:50.409Z,80.39
2018-11-06T17:35:20.580Z,80.29
2018-11-06T17:37:49.817Z,80.35
2018-11-06T17:40:20.613Z,80.27
2018-11-06T17:42:49.872Z,79.96
2018-11-06T17:45:21.442Z,80.00
2018-11-06T17:47:51.420Z,80.00
2018-11-06T17:50:22.020Z,79.91
2018-11-06T17:52:51.482Z,79.93
2018-11-06T17:55:21.867Z,80.04
2018-11-06T17:57:51.035Z,79.92
2018-11-06T18:00:22.144Z,79.94
2018-11-06T18:02:51.322Z,80.42
2018-11-06T18:05:22.229Z,80.58
2018-11-06T18:07:51.698Z,80.37
2018-11-06T18:10:21.539Z,80.40
2018-11-06T18:12:51.728Z,80.52
2018-11-06T18:15:20.972Z,80.77
2018-11-06T18:17:51.288Z,80.58
2018-11-06T18:20:20.367Z,80.69
2018-11-06T18:22:49.756Z,80.93
2018-11-06T18:25:19.954Z,80.89
2018-11-06T18:27:53.427Z,80.95
2018-11-06T18:30:28.631Z,80.81
2018-11-06T18:32:57.921Z,80.60
2018-11-06T18:35:27.630Z,80.83
2018-11-06T18:37:57.340Z,80.98
2018-11-06T18:40:26.493Z,81.07
2018-11-06T18:42:56.556Z,81.00
2018-11-06T18:45:26.107Z,81.16
2018-11-06T18:47:55.817Z,81.22
2018-11-06T18:50:25.045Z,81.22
2018-11-06T18:52:54.294Z,81.10
2018-11-06T18:55:23.435Z,81.34
2018-11-06T18:57:52.556Z,81.61
2018-11-06T19:00:22.947Z,81.46
2018-11-06T19:02:53.188Z,81.35
2018-11-06T19:05:23.619Z,81.64
2018-11-06T19:07:52.815Z,81.65
2018-11-06T19:10:21.963Z,81.50
2018-11-06T19:12:51.067Z,81.94
2018-11-06T19:15:21.636Z,81.76
2018-11-06T19:17:51.740Z,81.78
2018-11-06T19:20:22.021Z,82.11
2018-11-06T19:22:51.181Z,82.04
2018-11-06T19:25:24.727Z,81.70
2018-11-06T19:27:53.840Z,82.01
2018-11-06T19:30:23.790Z,81.85
2018-11-06T19:32:53.903Z,81.67
2018-11-06T19:35:24.196Z,81.72
2018-11-06T19:37:53.266Z,81.79
2018-11-06T19:40:27.615Z,81.91
2018-11-06T19:42:57.981Z,82.24
2018-11-06T19:45:28.049Z,82.32
2018-11-06T19:47:57.912Z,82.35
2018-11-06T19:50:27.136Z,82.43
2018-11-06T19:52:57.261Z,82.30
2018-11-06T19:55:26.273Z,82.19
2018-11-06T19:57:55.525Z,82.53
2018-11-06T20:00:24.676Z,82.41
2018-11-06T20:02:54.499Z,82.52
2018-11-06T20:05:23.733Z,82.39
2018-11-06T20:07:53.300Z,82.38
2018-11-06T20:10:24.028Z,82.37
2018-11-06T20:12:54.241Z,82.08
2018-11-06T20:15:23.430Z,82.36
2018-11-06T20:17:52.553Z,82.45
2018-11-06T20:20:23.327Z,82.23
2018-11-06T20:22:52.780Z,82.32
2018-11-06T20:25:25.141Z,82.50
2018-11-06T20:27:55.384Z,82.67
2018-11-06T20:30:25.969Z,82.40
2018-11-06T20:32:55.817Z,82.24
2018-11-06T20:35:26.751Z,82.40
2018-11-06T20:37:55.969Z,82.64
2018-11-06T20:40:26.476Z,82.73
2018-11-06T20:42:55.659Z,82.36
2018-11-06T20:45:25.382Z,82.80
2018-11-06T20:47:55.098Z,82.69
2018-11-06T20:50:25.423Z,82.71
2018-11-06T20:52:54.536Z,82.94
2018-11-06T20:55:23.689Z,82.63
2018-11-06T20:57:52.873Z,82.71
2018-11-06T21:00:28.565Z,82.97
2018-11-06T21:02:59.313Z,82.98
2018-11-06T21:05:28.589Z,83.08
2018-11-06T21:07:58.497Z,82.91
2018-11-06T21:10:32.444Z,82.90
2018-11-06T21:13:01.632Z,82.65
2018-11-06T21:15:30.799Z,82.68
2018-11-06T21:18:00.185Z,82.81
2018-11-06T21:20:29.261Z,82.78
2018-11-06T21:22:58.626Z,82.59
2018-11-06T21:25:28.045Z,82.60
2018-11-06T21:27:56.998Z,82.62
2018-11-06T21:30:26.457Z,82.88
2018-11-06T21:32:56.247Z,82.85
2018-11-06T21:35:25.407Z,82.76
2018-11-06T21:37:54.508Z,82.78
2018-11-06T21:40:23.604Z,82.63
2018-11-06T21:42:54.884Z,82.89
2018-11-06T21:45:25.611Z,82.82
2018-11-06T21:47:54.726Z,83.01
2018-11-06T21:50:23.830Z,82.81
2018-11-06T21:52:53.058Z,82.93
2018-11-06T21:55:26.504Z,82.74
2018-11-06T21:57:56.443Z,82.98
2018-11-06T22:00:25.731Z,82.75
2018-11-06T22:02:55.482Z,82.64
2018-11-06T22:05:27.049Z,82.66
2018-11-06T22:07:56.327Z,82.88
2018-11-06T22:10:25.563Z,82.74
2018-11-06T22:12:54.805Z,82.58
2018-11-06T22:15:25.250Z,83.02
2018-11-06T22:17:54.528Z,82.83
2018-11-06T22:20:23.720Z,82.43
2018-11-06T22:22:53.807Z,82.70
2018-11-06T22:25:22.961Z,82.77
2018-11-06T22:27:52.164Z,82.90
2018-11-06T22:30:21.662Z,82.84
2018-11-06T22:32:50.846Z,83.04
2018-11-06T22:35:20.559Z,82.65
2018-11-06T22:37:49.785Z,82.88
2018-11-06T22:40:20.492Z,82.94
2018-11-06T22:42:50.832Z,82.72
2018-11-06T22:45:20.054Z,82.91
2018-11-06T22:47:49.113Z,82.73
2018-11-06T22:50:18.934Z,82.85
2018-11-06T22:52:48.842Z,82.98
2018-11-06T22:55:18.347Z,83.12
2018-11-06T22:57:48.028Z,83.01
2018-11-06T23:01:21.836Z,83.43
2018-11-06T23:03:51.547Z,83.63
2018-11-06T23:06:21.416Z,83.94
2018-11-06T23:08:50.557Z,83.93
2018-11-06T23:11:19.678Z,84.10
2018-11-06T23:13:48.781Z,84.19
2018-11-06T23:16:18.490Z,84.28
2018-11-06T23:18:48.965Z,84.34
2018-11-06T23:21:18.107Z,84.15
2018-11-06T23:23:58.130Z,84.41
2018-11-06T23:26:27.749Z,84.48
2018-11-06T23:29:10.154Z,84.46
2018-11-06T23:31:55.732Z,84.63
2018-11-06T23:34:41.727Z,84.60
2018-11-06T23:37:11.248Z,84.65
2018-11-06T23:39:44.015Z,84.67
2018-11-06T23:42:29.719Z,84.72
2018-11-06T23:45:16.730Z,84.68
2018-11-06T23:48:05.809Z,84.30
2018-11-06T23:50:53.136Z,84.54
2018-11-06T23:53:39.825Z,84.72
2018-11-06T23:56:27.045Z,84.84
2018-11-06T23:59:10.848Z,84.78
